Terminal Aerodrome Forecast
Issued by NWS

Home | Current Version | Previous Version | Text Only | Print | Product List | Glossary On
Versions: 1 2 3 4 5 6 7 8 9 10 11 12
000
FTUS45 KABQ 191731
TAFAEG
TAF
KAEG 191731Z 1918/2018 16005KT P6SM BKN110
     FM192100 19010KT P6SM VCSH BKN090
      TEMPO 2001/2004 VRB20G33KT 6SM -TSRA BKN070CB
     FM200500 22006KT P6SM FEW005 BKN100
     FM201600 19006KT P6SM FEW100=

USA.gov is the U.S. government's official web portal to all federal, state and local government web resources and services.